sensor_id;sensor_type;location;lat;lon;timestamp;P1;durP1;ratioP1;P2;durP2;ratioP2
4672;SDS011;61885;53.560;9.940;2022-08-19T00:00:51;7.80;;;5.03;;
4672;SDS011;61885;53.560;9.940;2022-08-19T00:03:20;10.70;;;5.67;;
4672;SDS011;61885;53.560;9.940;2022-08-19T00:05:56;14.07;;;4.67;;
4672;SDS011;61885;53.560;9.940;2022-08-19T00:08:26;5.10;;;4.60;;
4672;SDS011;61885;53.560;9.940;2022-08-19T00:10:55;5.57;;;4.27;;
4672;SDS011;61885;53.560;9.940;2022-08-19T00:13:25;7.37;;;4.87;;
4672;SDS011;61885;53.560;9.940;2022-08-19T00:15:55;7.67;;;5.13;;
4672;SDS011;61885;53.560;9.940;2022-08-19T00:18:26;9.00;;;5.57;;
4672;SDS011;61885;53.560;9.940;2022-08-19T00:20:58;11.10;;;6.70;;
4672;SDS011;61885;53.560;9.940;2022-08-19T00:23:28;6.60;;;5.07;;
4672;SDS011;61885;53.560;9.940;2022-08-19T00:26:00;7.30;;;6.33;;
4672;SDS011;61885;53.560;9.940;2022-08-19T00:28:29;8.77;;;6.53;;
4672;SDS011;61885;53.560;9.940;2022-08-19T00:31:01;13.30;;;7.10;;
4672;SDS011;61885;53.560;9.940;2022-08-19T00:33:32;12.00;;;7.37;;
4672;SDS011;61885;53.560;9.940;2022-08-19T00:36:06;14.30;;;8.13;;
4672;SDS011;61885;53.560;9.940;2022-08-19T00:38:37;17.20;;;8.67;;
4672;SDS011;61885;53.560;9.940;2022-08-19T00:41:10;16.30;;;9.10;;
4672;SDS011;61885;53.560;9.940;2022-08-19T00:43:41;11.77;;;8.37;;
4672;SDS011;61885;53.560;9.940;2022-08-19T00:46:10;14.60;;;9.10;;
4672;SDS011;61885;53.560;9.940;2022-08-19T00:48:40;17.43;;;9.50;;
4672;SDS011;61885;53.560;9.940;2022-08-19T00:51:13;16.30;;;9.43;;
4672;SDS011;61885;53.560;9.940;2022-08-19T00:53:42;17.63;;;9.70;;
4672;SDS011;61885;53.560;9.940;2022-08-19T00:56:12;17.27;;;8.87;;
4672;SDS011;61885;53.560;9.940;2022-08-19T00:58:43;15.73;;;10.53;;
4672;SDS011;61885;53.560;9.940;2022-08-19T01:01:13;21.00;;;10.60;;
4672;SDS011;61885;53.560;9.940;2022-08-19T01:03:42;18.83;;;10.83;;
4672;SDS011;61885;53.560;9.940;2022-08-19T01:06:15;23.00;;;12.03;;
4672;SDS011;61885;53.560;9.940;2022-08-19T01:08:44;29.13;;;11.70;;
4672;SDS011;61885;53.560;9.940;2022-08-19T01:11:14;21.53;;;11.83;;
4672;SDS011;61885;53.560;9.940;2022-08-19T01:13:44;16.33;;;10.30;;
4672;SDS011;61885;53.560;9.940;2022-08-19T01:16:14;24.23;;;10.73;;
4672;SDS011;61885;53.560;9.940;2022-08-19T01:18:46;17.27;;;10.87;;
4672;SDS011;61885;53.560;9.940;2022-08-19T01:21:22;20.10;;;9.70;;
4672;SDS011;61885;53.560;9.940;2022-08-19T01:23:59;15.23;;;9.23;;
4672;SDS011;61885;53.560;9.940;2022-08-19T01:26:28;13.80;;;9.10;;
4672;SDS011;61885;53.560;9.940;2022-08-19T01:28:58;18.03;;;10.37;;
4672;SDS011;61885;53.560;9.940;2022-08-19T01:31:30;18.53;;;10.10;;
4672;SDS011;61885;53.560;9.940;2022-08-19T01:34:01;17.40;;;10.60;;
4672;SDS011;61885;53.560;9.940;2022-08-19T01:36:32;23.87;;;11.13;;
4672;SDS011;61885;53.560;9.940;2022-08-19T01:39:07;18.17;;;9.77;;
4672;SDS011;61885;53.560;9.940;2022-08-19T01:41:38;17.07;;;9.67;;
4672;SDS011;61885;53.560;9.940;2022-08-19T01:44:09;17.67;;;9.97;;
4672;SDS011;61885;53.560;9.940;2022-08-19T01:46:38;20.93;;;9.90;;
4672;SDS011;61885;53.560;9.940;2022-08-19T01:49:09;18.37;;;10.10;;
4672;SDS011;61885;53.560;9.940;2022-08-19T01:51:39;18.40;;;9.73;;
4672;SDS011;61885;53.560;9.940;2022-08-19T01:54:11;13.63;;;9.13;;
4672;SDS011;61885;53.560;9.940;2022-08-19T01:56:42;14.97;;;9.40;;
4672;SDS011;61885;53.560;9.940;2022-08-19T01:59:13;19.13;;;10.57;;
4672;SDS011;61885;53.560;9.940;2022-08-19T02:01:45;25.33;;;10.10;;
4672;SDS011;61885;53.560;9.940;2022-08-19T02:04:14;28.50;;;11.73;;
4672;SDS011;61885;53.560;9.940;2022-08-19T02:06:44;26.70;;;13.00;;
4672;SDS011;61885;53.560;9.940;2022-08-19T02:09:16;21.13;;;11.50;;
4672;SDS011;61885;53.560;9.940;2022-08-19T02:11:46;29.10;;;12.40;;
4672;SDS011;61885;53.560;9.940;2022-08-19T02:14:15;19.73;;;10.40;;
4672;SDS011;61885;53.560;9.940;2022-08-19T02:16:45;25.60;;;11.67;;
4672;SDS011;61885;53.560;9.940;2022-08-19T02:19:14;20.73;;;11.00;;
4672;SDS011;61885;53.560;9.940;2022-08-19T02:21:44;24.60;;;11.13;;
4672;SDS011;61885;53.560;9.940;2022-08-19T02:24:16;24.60;;;11.87;;
4672;SDS011;61885;53.560;9.940;2022-08-19T02:26:46;25.17;;;10.70;;
4672;SDS011;61885;53.560;9.940;2022-08-19T02:29:15;23.50;;;11.03;;
4672;SDS011;61885;53.560;9.940;2022-08-19T02:31:45;24.73;;;11.30;;
4672;SDS011;61885;53.560;9.940;2022-08-19T02:34:15;26.50;;;11.60;;
4672;SDS011;61885;53.560;9.940;2022-08-19T02:36:45;25.63;;;11.10;;
4672;SDS011;61885;53.560;9.940;2022-08-19T02:39:17;32.37;;;13.40;;
4672;SDS011;61885;53.560;9.940;2022-08-19T02:41:44;31.33;;;12.73;;
4672;SDS011;61885;53.560;9.940;2022-08-19T02:44:15;31.97;;;11.27;;
4672;SDS011;61885;53.560;9.940;2022-08-19T02:46:45;29.00;;;12.47;;
4672;SDS011;61885;53.560;9.940;2022-08-19T02:49:16;43.83;;;13.50;;
4672;SDS011;61885;53.560;9.940;2022-08-19T02:51:45;30.83;;;13.10;;
4672;SDS011;61885;53.560;9.940;2022-08-19T02:54:18;29.73;;;12.70;;
4672;SDS011;61885;53.560;9.940;2022-08-19T02:56:47;29.07;;;13.00;;
4672;SDS011;61885;53.560;9.940;2022-08-19T02:59:17;31.03;;;12.37;;
4672;SDS011;61885;53.560;9.940;2022-08-19T03:01:47;41.80;;;15.60;;
4672;SDS011;61885;53.560;9.940;2022-08-19T03:04:16;40.30;;;15.37;;
4672;SDS011;61885;53.560;9.940;2022-08-19T03:06:46;44.07;;;14.43;;
4672;SDS011;61885;53.560;9.940;2022-08-19T03:09:19;51.73;;;16.43;;
4672;SDS011;61885;53.560;9.940;2022-08-19T03:11:49;50.50;;;16.83;;
4672;SDS011;61885;53.560;9.940;2022-08-19T03:14:19;51.77;;;16.17;;
4672;SDS011;61885;53.560;9.940;2022-08-19T03:16:50;48.50;;;17.87;;
4672;SDS011;61885;53.560;9.940;2022-08-19T03:19:20;48.43;;;16.23;;
4672;SDS011;61885;53.560;9.940;2022-08-19T03:21:51;58.97;;;16.57;;
4672;SDS011;61885;53.560;9.940;2022-08-19T03:24:24;42.60;;;15.80;;
4672;SDS011;61885;53.560;9.940;2022-08-19T03:26:54;69.50;;;18.17;;
4672;SDS011;61885;53.560;9.940;2022-08-19T03:29:25;38.10;;;15.73;;
4672;SDS011;61885;53.560;9.940;2022-08-19T03:31:56;45.73;;;16.67;;
4672;SDS011;61885;53.560;9.940;2022-08-19T03:34:28;42.47;;;16.80;;
4672;SDS011;61885;53.560;9.940;2022-08-19T03:37:03;37.83;;;14.40;;
4672;SDS011;61885;53.560;9.940;2022-08-19T03:39:38;41.87;;;16.40;;
4672;SDS011;61885;53.560;9.940;2022-08-19T03:42:09;34.10;;;16.40;;
4672;SDS011;61885;53.560;9.940;2022-08-19T03:44:40;38.37;;;15.33;;
4672;SDS011;61885;53.560;9.940;2022-08-19T03:47:13;35.83;;;17.27;;
4672;SDS011;61885;53.560;9.940;2022-08-19T03:49:43;42.07;;;16.27;;
4672;SDS011;61885;53.560;9.940;2022-08-19T03:52:13;49.60;;;18.10;;
4672;SDS011;61885;53.560;9.940;2022-08-19T03:54:45;48.30;;;16.87;;
4672;SDS011;61885;53.560;9.940;2022-08-19T03:57:15;44.80;;;16.77;;
4672;SDS011;61885;53.560;9.940;2022-08-19T03:59:44;44.13;;;16.53;;
4672;SDS011;61885;53.560;9.940;2022-08-19T04:02:14;44.30;;;17.20;;
4672;SDS011;61885;53.560;9.940;2022-08-19T04:04:43;34.13;;;15.77;;
4672;SDS011;61885;53.560;9.940;2022-08-19T04:07:14;39.30;;;14.90;;
4672;SDS011;61885;53.560;9.940;2022-08-19T04:09:50;43.97;;;16.37;;
4672;SDS011;61885;53.560;9.940;2022-08-19T04:12:20;45.90;;;17.00;;
4672;SDS011;61885;53.560;9.940;2022-08-19T04:14:49;39.47;;;16.47;;
4672;SDS011;61885;53.560;9.940;2022-08-19T04:17:19;26.40;;;13.57;;
4672;SDS011;61885;53.560;9.940;2022-08-19T04:19:48;39.63;;;16.40;;
4672;SDS011;61885;53.560;9.940;2022-08-19T04:22:18;33.77;;;14.80;;
4672;SDS011;61885;53.560;9.940;2022-08-19T04:24:50;41.80;;;16.47;;
4672;SDS011;61885;53.560;9.940;2022-08-19T04:27:20;33.17;;;15.60;;
4672;SDS011;61885;53.560;9.940;2022-08-19T04:29:49;37.13;;;16.43;;
4672;SDS011;61885;53.560;9.940;2022-08-19T04:32:20;30.73;;;14.17;;
4672;SDS011;61885;53.560;9.940;2022-08-19T04:34:49;27.33;;;13.50;;
4672;SDS011;61885;53.560;9.940;2022-08-19T04:37:22;33.53;;;14.77;;
4672;SDS011;61885;53.560;9.940;2022-08-19T04:39:55;34.63;;;13.50;;
4672;SDS011;61885;53.560;9.940;2022-08-19T04:42:37;26.50;;;11.70;;
4672;SDS011;61885;53.560;9.940;2022-08-19T04:45:10;25.03;;;12.90;;
4672;SDS011;61885;53.560;9.940;2022-08-19T04:47:41;26.93;;;11.23;;
4672;SDS011;61885;53.560;9.940;2022-08-19T04:50:12;26.00;;;12.00;;
4672;SDS011;61885;53.560;9.940;2022-08-19T04:52:42;23.67;;;11.33;;
4672;SDS011;61885;53.560;9.940;2022-08-19T04:55:14;33.37;;;13.50;;
4672;SDS011;61885;53.560;9.940;2022-08-19T04:57:44;25.83;;;12.00;;
4672;SDS011;61885;53.560;9.940;2022-08-19T05:00:14;23.00;;;12.00;;
4672;SDS011;61885;53.560;9.940;2022-08-19T05:02:44;30.97;;;12.30;;
4672;SDS011;61885;53.560;9.940;2022-08-19T05:05:15;22.80;;;12.47;;
4672;SDS011;61885;53.560;9.940;2022-08-19T05:07:45;23.13;;;11.87;;
4672;SDS011;61885;53.560;9.940;2022-08-19T05:10:17;26.93;;;12.27;;
4672;SDS011;61885;53.560;9.940;2022-08-19T05:12:47;22.67;;;11.90;;
4672;SDS011;61885;53.560;9.940;2022-08-19T05:15:17;18.50;;;10.43;;
4672;SDS011;61885;53.560;9.940;2022-08-19T05:17:46;20.90;;;11.20;;
4672;SDS011;61885;53.560;9.940;2022-08-19T05:20:29;28.13;;;11.20;;
4672;SDS011;61885;53.560;9.940;2022-08-19T05:23:12;26.20;;;11.43;;
4672;SDS011;61885;53.560;9.940;2022-08-19T05:25:45;25.80;;;11.37;;
4672;SDS011;61885;53.560;9.940;2022-08-19T05:28:15;26.30;;;11.90;;
4672;SDS011;61885;53.560;9.940;2022-08-19T05:30:45;26.70;;;11.20;;
4672;SDS011;61885;53.560;9.940;2022-08-19T05:33:16;26.20;;;12.30;;
4672;SDS011;61885;53.560;9.940;2022-08-19T05:35:47;35.63;;;10.90;;
4672;SDS011;61885;53.560;9.940;2022-08-19T05:38:18;25.53;;;11.30;;
4672;SDS011;61885;53.560;9.940;2022-08-19T05:40:50;23.73;;;11.40;;
4672;SDS011;61885;53.560;9.940;2022-08-19T05:43:20;19.40;;;10.60;;
4672;SDS011;61885;53.560;9.940;2022-08-19T05:45:50;26.37;;;10.37;;
4672;SDS011;61885;53.560;9.940;2022-08-19T05:48:19;16.63;;;9.80;;
4672;SDS011;61885;53.560;9.940;2022-08-19T05:50:49;20.03;;;10.13;;
4672;SDS011;61885;53.560;9.940;2022-08-19T05:53:19;22.00;;;9.97;;
4672;SDS011;61885;53.560;9.940;2022-08-19T05:55:51;20.13;;;9.80;;
4672;SDS011;61885;53.560;9.940;2022-08-19T05:58:20;19.80;;;10.50;;
4672;SDS011;61885;53.560;9.940;2022-08-19T06:00:50;28.30;;;11.30;;
4672;SDS011;61885;53.560;9.940;2022-08-19T06:03:20;18.67;;;9.60;;
4672;SDS011;61885;53.560;9.940;2022-08-19T06:05:50;20.83;;;9.20;;
4672;SDS011;61885;53.560;9.940;2022-08-19T06:08:20;14.13;;;8.80;;
4672;SDS011;61885;53.560;9.940;2022-08-19T06:10:52;22.30;;;8.90;;
4672;SDS011;61885;53.560;9.940;2022-08-19T06:13:22;24.60;;;9.97;;
4672;SDS011;61885;53.560;9.940;2022-08-19T06:15:52;13.53;;;8.33;;
4672;SDS011;61885;53.560;9.940;2022-08-19T06:18:22;16.27;;;9.37;;
4672;SDS011;61885;53.560;9.940;2022-08-19T06:20:52;16.50;;;9.07;;
4672;SDS011;61885;53.560;9.940;2022-08-19T06:23:21;22.33;;;8.33;;
4672;SDS011;61885;53.560;9.940;2022-08-19T06:25:54;21.80;;;9.27;;
4672;SDS011;61885;53.560;9.940;2022-08-19T06:28:23;16.87;;;8.87;;
4672;SDS011;61885;53.560;9.940;2022-08-19T06:30:53;22.63;;;10.90;;
4672;SDS011;61885;53.560;9.940;2022-08-19T06:33:22;22.30;;;9.17;;
4672;SDS011;61885;53.560;9.940;2022-08-19T06:35:52;17.20;;;8.73;;
4672;SDS011;61885;53.560;9.940;2022-08-19T06:38:22;16.63;;;8.60;;
4672;SDS011;61885;53.560;9.940;2022-08-19T06:41:01;22.73;;;8.57;;
4672;SDS011;61885;53.560;9.940;2022-08-19T06:43:31;16.30;;;7.80;;
4672;SDS011;61885;53.560;9.940;2022-08-19T06:46:02;13.20;;;8.17;;
4672;SDS011;61885;53.560;9.940;2022-08-19T06:48:34;16.90;;;9.00;;
4672;SDS011;61885;53.560;9.940;2022-08-19T06:51:04;21.00;;;8.93;;
4672;SDS011;61885;53.560;9.940;2022-08-19T06:53:34;14.47;;;8.17;;
4672;SDS011;61885;53.560;9.940;2022-08-19T06:56:08;13.53;;;7.00;;
4672;SDS011;61885;53.560;9.940;2022-08-19T06:58:38;15.57;;;7.13;;
4672;SDS011;61885;53.560;9.940;2022-08-19T07:01:08;8.77;;;6.37;;
4672;SDS011;61885;53.560;9.940;2022-08-19T07:03:39;10.50;;;6.53;;
4672;SDS011;61885;53.560;9.940;2022-08-19T07:06:09;13.03;;;6.40;;
4672;SDS011;61885;53.560;9.940;2022-08-19T07:08:43;9.37;;;6.50;;
4672;SDS011;61885;53.560;9.940;2022-08-19T07:11:17;14.17;;;7.40;;
4672;SDS011;61885;53.560;9.940;2022-08-19T07:13:47;13.90;;;7.83;;
4672;SDS011;61885;53.560;9.940;2022-08-19T07:16:17;11.23;;;5.73;;
4672;SDS011;61885;53.560;9.940;2022-08-19T07:18:51;8.97;;;5.37;;
4672;SDS011;61885;53.560;9.940;2022-08-19T07:21:22;8.50;;;5.70;;
4672;SDS011;61885;53.560;9.940;2022-08-19T07:23:54;12.43;;;5.93;;
4672;SDS011;61885;53.560;9.940;2022-08-19T07:26:30;7.73;;;5.23;;
4672;SDS011;61885;53.560;9.940;2022-08-19T07:29:01;10.07;;;6.07;;
4672;SDS011;61885;53.560;9.940;2022-08-19T07:31:31;12.17;;;5.67;;
4672;SDS011;61885;53.560;9.940;2022-08-19T07:34:06;23.50;;;5.40;;
4672;SDS011;61885;53.560;9.940;2022-08-19T07:36:38;10.23;;;5.97;;
4672;SDS011;61885;53.560;9.940;2022-08-19T07:39:12;5.67;;;4.30;;
4672;SDS011;61885;53.560;9.940;2022-08-19T07:41:49;5.53;;;4.87;;
4672;SDS011;61885;53.560;9.940;2022-08-19T07:44:22;5.73;;;4.37;;
4672;SDS011;61885;53.560;9.940;2022-08-19T07:46:54;6.10;;;4.73;;
4672;SDS011;61885;53.560;9.940;2022-08-19T07:49:28;8.00;;;4.17;;
4672;SDS011;61885;53.560;9.940;2022-08-19T07:51:58;5.07;;;4.23;;
4672;SDS011;61885;53.560;9.940;2022-08-19T07:54:31;5.00;;;4.37;;
4672;SDS011;61885;53.560;9.940;2022-08-19T07:57:14;7.40;;;4.80;;
4672;SDS011;61885;53.560;9.940;2022-08-19T08:00:03;9.60;;;4.37;;
4672;SDS011;61885;53.560;9.940;2022-08-19T08:02:37;11.83;;;4.27;;
4672;SDS011;61885;53.560;9.940;2022-08-19T08:05:12;5.53;;;2.90;;
4672;SDS011;61885;53.560;9.940;2022-08-19T08:07:54;3.90;;;3.60;;
4672;SDS011;61885;53.560;9.940;2022-08-19T08:10:37;6.97;;;4.13;;
4672;SDS011;61885;53.560;9.940;2022-08-19T08:13:09;6.03;;;4.70;;
4672;SDS011;61885;53.560;9.940;2022-08-19T08:15:39;10.33;;;5.97;;
4672;SDS011;61885;53.560;9.940;2022-08-19T08:18:10;6.10;;;5.00;;
4672;SDS011;61885;53.560;9.940;2022-08-19T08:20:40;5.33;;;4.67;;
4672;SDS011;61885;53.560;9.940;2022-08-19T08:23:10;8.60;;;5.70;;
4672;SDS011;61885;53.560;9.940;2022-08-19T08:25:52;7.90;;;4.90;;
4672;SDS011;61885;53.560;9.940;2022-08-19T08:28:26;13.10;;;6.10;;
4672;SDS011;61885;53.560;9.940;2022-08-19T08:30:56;11.10;;;5.43;;
4672;SDS011;61885;53.560;9.940;2022-08-19T08:33:27;5.70;;;4.63;;
4672;SDS011;61885;53.560;9.940;2022-08-19T08:35:58;8.07;;;5.83;;
4672;SDS011;61885;53.560;9.940;2022-08-19T08:38:32;6.67;;;5.30;;
4672;SDS011;61885;53.560;9.940;2022-08-19T08:41:04;9.07;;;6.27;;
4672;SDS011;61885;53.560;9.940;2022-08-19T08:43:48;7.07;;;6.07;;
4672;SDS011;61885;53.560;9.940;2022-08-19T08:46:21;11.13;;;4.90;;
4672;SDS011;61885;53.560;9.940;2022-08-19T08:48:56;10.47;;;6.50;;
4672;SDS011;61885;53.560;9.940;2022-08-19T08:51:32;9.83;;;5.60;;
4672;SDS011;61885;53.560;9.940;2022-08-19T08:54:05;10.50;;;6.80;;
4672;SDS011;61885;53.560;9.940;2022-08-19T08:56:37;16.10;;;6.07;;
4672;SDS011;61885;53.560;9.940;2022-08-19T08:59:12;19.90;;;7.00;;
4672;SDS011;61885;53.560;9.940;2022-08-19T09:01:47;10.23;;;6.30;;
4672;SDS011;61885;53.560;9.940;2022-08-19T09:04:17;14.33;;;7.10;;
4672;SDS011;61885;53.560;9.940;2022-08-19T09:06:51;10.87;;;6.40;;
4672;SDS011;61885;53.560;9.940;2022-08-19T09:09:25;10.67;;;7.13;;
4672;SDS011;61885;53.560;9.940;2022-08-19T09:12:04;10.43;;;6.73;;
4672;SDS011;61885;53.560;9.940;2022-08-19T09:14:44;9.60;;;5.40;;
4672;SDS011;61885;53.560;9.940;2022-08-19T09:17:17;10.50;;;5.47;;
4672;SDS011;61885;53.560;9.940;2022-08-19T09:19:57;7.87;;;5.50;;
4672;SDS011;61885;53.560;9.940;2022-08-19T09:22:31;14.10;;;6.20;;
4672;SDS011;61885;53.560;9.940;2022-08-19T09:25:01;6.90;;;5.20;;
4672;SDS011;61885;53.560;9.940;2022-08-19T09:27:31;8.03;;;5.87;;
4672;SDS011;61885;53.560;9.940;2022-08-19T09:30:07;11.10;;;6.30;;
4672;SDS011;61885;53.560;9.940;2022-08-19T09:32:39;9.60;;;5.97;;
4672;SDS011;61885;53.560;9.940;2022-08-19T09:35:10;11.73;;;7.23;;
4672;SDS011;61885;53.560;9.940;2022-08-19T09:37:41;8.80;;;5.93;;
4672;SDS011;61885;53.560;9.940;2022-08-19T09:40:11;9.93;;;6.77;;
4672;SDS011;61885;53.560;9.940;2022-08-19T09:42:41;12.40;;;7.20;;
4672;SDS011;61885;53.560;9.940;2022-08-19T09:45:15;10.60;;;6.50;;
4672;SDS011;61885;53.560;9.940;2022-08-19T09:47:46;10.83;;;6.60;;
4672;SDS011;61885;53.560;9.940;2022-08-19T09:50:18;8.63;;;5.80;;
4672;SDS011;61885;53.560;9.940;2022-08-19T09:52:48;7.43;;;6.17;;
4672;SDS011;61885;53.560;9.940;2022-08-19T09:55:18;10.33;;;6.07;;
4672;SDS011;61885;53.560;9.940;2022-08-19T09:57:48;9.67;;;6.57;;
4672;SDS011;61885;53.560;9.940;2022-08-19T10:00:20;9.40;;;6.27;;
4672;SDS011;61885;53.560;9.940;2022-08-19T10:02:50;10.40;;;6.50;;
4672;SDS011;61885;53.560;9.940;2022-08-19T10:05:20;12.73;;;6.37;;
4672;SDS011;61885;53.560;9.940;2022-08-19T10:08:02;12.80;;;7.00;;
4672;SDS011;61885;53.560;9.940;2022-08-19T10:10:34;12.40;;;7.33;;
4672;SDS011;61885;53.560;9.940;2022-08-19T10:13:04;29.67;;;6.70;;
4672;SDS011;61885;53.560;9.940;2022-08-19T10:15:37;13.50;;;7.40;;
4672;SDS011;61885;53.560;9.940;2022-08-19T10:18:06;12.17;;;8.27;;
4672;SDS011;61885;53.560;9.940;2022-08-19T10:20:37;14.37;;;8.07;;
4672;SDS011;61885;53.560;9.940;2022-08-19T10:23:07;11.10;;;7.40;;
4672;SDS011;61885;53.560;9.940;2022-08-19T10:25:39;9.80;;;7.40;;
4672;SDS011;61885;53.560;9.940;2022-08-19T10:28:09;11.80;;;8.07;;
4672;SDS011;61885;53.560;9.940;2022-08-19T10:30:43;14.23;;;8.77;;
4672;SDS011;61885;53.560;9.940;2022-08-19T10:33:14;11.57;;;7.53;;
4672;SDS011;61885;53.560;9.940;2022-08-19T10:35:44;9.63;;;7.30;;
4672;SDS011;61885;53.560;9.940;2022-08-19T10:38:14;9.47;;;7.50;;
4672;SDS011;61885;53.560;9.940;2022-08-19T10:40:44;10.70;;;7.10;;
4672;SDS011;61885;53.560;9.940;2022-08-19T10:43:14;11.97;;;7.60;;
4672;SDS011;61885;53.560;9.940;2022-08-19T10:45:48;13.60;;;9.03;;
4672;SDS011;61885;53.560;9.940;2022-08-19T10:48:20;21.13;;;9.17;;
4672;SDS011;61885;53.560;9.940;2022-08-19T10:50:50;11.60;;;8.13;;
4672;SDS011;61885;53.560;9.940;2022-08-19T10:53:32;12.60;;;8.10;;
4672;SDS011;61885;53.560;9.940;2022-08-19T10:56:02;12.87;;;7.07;;
4672;SDS011;61885;53.560;9.940;2022-08-19T10:58:44;12.40;;;7.13;;
4672;SDS011;61885;53.560;9.940;2022-08-19T11:01:17;13.07;;;7.60;;
4672;SDS011;61885;53.560;9.940;2022-08-19T11:03:46;16.10;;;9.07;;
4672;SDS011;61885;53.560;9.940;2022-08-19T11:06:16;14.20;;;7.40;;
4672;SDS011;61885;53.560;9.940;2022-08-19T11:08:46;10.90;;;7.40;;
4672;SDS011;61885;53.560;9.940;2022-08-19T11:11:16;10.30;;;7.63;;
4672;SDS011;61885;53.560;9.940;2022-08-19T11:13:49;12.40;;;7.77;;
4672;SDS011;61885;53.560;9.940;2022-08-19T11:16:24;12.40;;;7.20;;
4672;SDS011;61885;53.560;9.940;2022-08-19T11:18:56;13.30;;;7.80;;
4672;SDS011;61885;53.560;9.940;2022-08-19T11:21:28;11.77;;;7.83;;
4672;SDS011;61885;53.560;9.940;2022-08-19T11:24:01;12.17;;;8.23;;
4672;SDS011;61885;53.560;9.940;2022-08-19T11:26:32;15.30;;;8.27;;
4672;SDS011;61885;53.560;9.940;2022-08-19T11:29:03;12.87;;;7.70;;
4672;SDS011;61885;53.560;9.940;2022-08-19T11:31:41;12.00;;;7.13;;
4672;SDS011;61885;53.560;9.940;2022-08-19T11:34:12;11.13;;;6.60;;
4672;SDS011;61885;53.560;9.940;2022-08-19T11:36:44;8.70;;;6.77;;
4672;SDS011;61885;53.560;9.940;2022-08-19T11:39:17;12.07;;;6.97;;
4672;SDS011;61885;53.560;9.940;2022-08-19T11:41:48;15.40;;;8.47;;
4672;SDS011;61885;53.560;9.940;2022-08-19T11:44:18;11.40;;;6.80;;
4672;SDS011;61885;53.560;9.940;2022-08-19T11:46:50;11.63;;;8.10;;
4672;SDS011;61885;53.560;9.940;2022-08-19T11:49:20;10.70;;;7.13;;
4672;SDS011;61885;53.560;9.940;2022-08-19T11:51:50;8.90;;;6.63;;
4672;SDS011;61885;53.560;9.940;2022-08-19T11:54:20;12.00;;;8.57;;
4672;SDS011;61885;53.560;9.940;2022-08-19T11:56:49;11.70;;;8.00;;
4672;SDS011;61885;53.560;9.940;2022-08-19T11:59:20;10.00;;;7.23;;
4672;SDS011;61885;53.560;9.940;2022-08-19T12:01:53;11.30;;;7.30;;
4672;SDS011;61885;53.560;9.940;2022-08-19T12:04:23;10.73;;;6.80;;
4672;SDS011;61885;53.560;9.940;2022-08-19T12:06:52;12.43;;;7.87;;
4672;SDS011;61885;53.560;9.940;2022-08-19T12:09:23;11.23;;;6.90;;
4672;SDS011;61885;53.560;9.940;2022-08-19T12:11:52;8.00;;;6.50;;
4672;SDS011;61885;53.560;9.940;2022-08-19T12:14:22;7.83;;;7.00;;
4672;SDS011;61885;53.560;9.940;2022-08-19T12:16:56;9.97;;;8.00;;
4672;SDS011;61885;53.560;9.940;2022-08-19T12:19:28;11.27;;;7.53;;
4672;SDS011;61885;53.560;9.940;2022-08-19T12:21:58;9.13;;;6.17;;
4672;SDS011;61885;53.560;9.940;2022-08-19T12:24:30;14.00;;;7.17;;
4672;SDS011;61885;53.560;9.940;2022-08-19T12:27:03;7.87;;;6.40;;
4672;SDS011;61885;53.560;9.940;2022-08-19T12:29:32;6.57;;;5.87;;
4672;SDS011;61885;53.560;9.940;2022-08-19T12:32:05;10.00;;;6.90;;
4672;SDS011;61885;53.560;9.940;2022-08-19T12:34:35;7.80;;;6.33;;
4672;SDS011;61885;53.560;9.940;2022-08-19T12:37:05;8.37;;;6.60;;
4672;SDS011;61885;53.560;9.940;2022-08-19T12:39:36;7.93;;;6.30;;
4672;SDS011;61885;53.560;9.940;2022-08-19T12:42:07;11.73;;;6.30;;
4672;SDS011;61885;53.560;9.940;2022-08-19T12:44:38;10.20;;;6.30;;
4672;SDS011;61885;53.560;9.940;2022-08-19T12:47:12;9.53;;;7.17;;
4672;SDS011;61885;53.560;9.940;2022-08-19T12:49:43;9.53;;;6.60;;
4672;SDS011;61885;53.560;9.940;2022-08-19T12:52:13;6.57;;;5.87;;
4672;SDS011;61885;53.560;9.940;2022-08-19T12:54:47;7.30;;;6.07;;
4672;SDS011;61885;53.560;9.940;2022-08-19T12:57:18;7.87;;;6.67;;
4672;SDS011;61885;53.560;9.940;2022-08-19T12:59:47;8.23;;;6.60;;
4672;SDS011;61885;53.560;9.940;2022-08-19T13:02:24;6.90;;;5.73;;
4672;SDS011;61885;53.560;9.940;2022-08-19T13:04:58;7.90;;;6.30;;
4672;SDS011;61885;53.560;9.940;2022-08-19T13:07:28;8.70;;;6.70;;
4672;SDS011;61885;53.560;9.940;2022-08-19T13:09:57;7.27;;;6.50;;
4672;SDS011;61885;53.560;9.940;2022-08-19T13:12:27;10.27;;;7.20;;
4672;SDS011;61885;53.560;9.940;2022-08-19T13:14:56;7.27;;;6.10;;
4672;SDS011;61885;53.560;9.940;2022-08-19T13:17:29;11.70;;;7.87;;
4672;SDS011;61885;53.560;9.940;2022-08-19T13:20:00;7.27;;;6.47;;
4672;SDS011;61885;53.560;9.940;2022-08-19T13:22:30;10.07;;;7.90;;
4672;SDS011;61885;53.560;9.940;2022-08-19T13:25:01;8.17;;;6.73;;
4672;SDS011;61885;53.560;9.940;2022-08-19T13:27:31;10.30;;;7.13;;
4672;SDS011;61885;53.560;9.940;2022-08-19T13:30:03;9.40;;;7.40;;
4672;SDS011;61885;53.560;9.940;2022-08-19T13:32:55;9.57;;;7.57;;
4672;SDS011;61885;53.560;9.940;2022-08-19T13:35:41;10.97;;;6.90;;
4672;SDS011;61885;53.560;9.940;2022-08-19T13:38:14;11.00;;;6.90;;
4672;SDS011;61885;53.560;9.940;2022-08-19T13:40:46;12.30;;;7.77;;
4672;SDS011;61885;53.560;9.940;2022-08-19T13:43:17;11.43;;;8.17;;
4672;SDS011;61885;53.560;9.940;2022-08-19T13:45:51;11.07;;;7.33;;
4672;SDS011;61885;53.560;9.940;2022-08-19T13:48:25;7.70;;;6.20;;
4672;SDS011;61885;53.560;9.940;2022-08-19T13:50:55;10.17;;;6.60;;
4672;SDS011;61885;53.560;9.940;2022-08-19T13:53:25;8.20;;;6.97;;
4672;SDS011;61885;53.560;9.940;2022-08-19T13:55:56;8.70;;;7.07;;
4672;SDS011;61885;53.560;9.940;2022-08-19T13:58:26;10.47;;;7.10;;
4672;SDS011;61885;53.560;9.940;2022-08-19T14:00:56;9.40;;;7.23;;
4672;SDS011;61885;53.560;9.940;2022-08-19T14:03:29;9.47;;;7.03;;
4672;SDS011;61885;53.560;9.940;2022-08-19T14:06:00;11.00;;;7.87;;
4672;SDS011;61885;53.560;9.940;2022-08-19T14:08:30;11.20;;;8.53;;
4672;SDS011;61885;53.560;9.940;2022-08-19T14:11:00;11.40;;;7.83;;
4672;SDS011;61885;53.560;9.940;2022-08-19T14:13:30;12.93;;;8.07;;
4672;SDS011;61885;53.560;9.940;2022-08-19T14:16:00;13.67;;;8.17;;
4672;SDS011;61885;53.560;9.940;2022-08-19T14:18:35;11.27;;;8.70;;
4672;SDS011;61885;53.560;9.940;2022-08-19T14:21:06;11.13;;;8.17;;
4672;SDS011;61885;53.560;9.940;2022-08-19T14:23:36;9.40;;;7.30;;
4672;SDS011;61885;53.560;9.940;2022-08-19T14:26:06;10.40;;;7.33;;
4672;SDS011;61885;53.560;9.940;2022-08-19T14:28:37;8.23;;;6.73;;
4672;SDS011;61885;53.560;9.940;2022-08-19T14:31:07;10.80;;;6.97;;
4672;SDS011;61885;53.560;9.940;2022-08-19T14:33:39;7.80;;;7.00;;
4672;SDS011;61885;53.560;9.940;2022-08-19T14:36:09;11.20;;;7.50;;
4672;SDS011;61885;53.560;9.940;2022-08-19T14:38:39;9.57;;;6.23;;
4672;SDS011;61885;53.560;9.940;2022-08-19T14:41:10;7.33;;;6.23;;
4672;SDS011;61885;53.560;9.940;2022-08-19T14:43:43;10.10;;;7.30;;
4672;SDS011;61885;53.560;9.940;2022-08-19T14:46:15;7.70;;;6.87;;
4672;SDS011;61885;53.560;9.940;2022-08-19T14:48:48;8.80;;;6.87;;
4672;SDS011;61885;53.560;9.940;2022-08-19T14:51:18;10.00;;;7.97;;
4672;SDS011;61885;53.560;9.940;2022-08-19T14:53:49;9.23;;;7.20;;
4672;SDS011;61885;53.560;9.940;2022-08-19T14:56:20;8.30;;;6.70;;
4672;SDS011;61885;53.560;9.940;2022-08-19T14:58:52;8.73;;;6.80;;
4672;SDS011;61885;53.560;9.940;2022-08-19T15:01:25;7.97;;;7.07;;
4672;SDS011;61885;53.560;9.940;2022-08-19T15:03:57;9.93;;;7.50;;
4672;SDS011;61885;53.560;9.940;2022-08-19T15:06:27;8.60;;;7.00;;
4672;SDS011;61885;53.560;9.940;2022-08-19T15:08:58;9.97;;;7.07;;
4672;SDS011;61885;53.560;9.940;2022-08-19T15:11:29;7.30;;;6.53;;
4672;SDS011;61885;53.560;9.940;2022-08-19T15:14:04;8.47;;;7.03;;